Terminal Aerodrome Forecast
Issued by NWS

Home | Current Version | Previous Version | Text Only | Print | Product List | Glossary On
Versions: 1 2 3 4 5 6 7 8 9 10 11 12 13 14 15 16 17 18 19 20 21 22 23
000
FTPA31 PHFO 232300
TAFITO
TAF
PHTO 232340Z 2400/2424 06008KT P6SM FEW025 SCT045
     FM240600 25005KT P6SM VCSH SCT020 BKN040
     FM242000 06008KT P6SM FEW025 SCT045=

USA.gov is the U.S. government's official web portal to all federal, state and local government web resources and services.